Buoy 21956

sailwx.info

Track history (hours):
 
Tides and Currents Weather Stations Pressure Air Temp Water Temp Dewpoint Dewpoint Depression Visibility Wind Speed Wind Dir Waves Ship Positions

Drifting buoy 21956

Last reported at 2018-Jun-25 12:00 UTC. Time now 2018-Jun-25 14:13 UTC.
Position N 56°44' W 153°53'.

Barometer 1015.1 mb

Date/timePositionNaut miles runAvg speedWind from/ knotsBaromVisibWave heightAir tempDewpointWater temp
2018-Jun-25 12:00N 56°44' W 153°53'0 0.1 1015.1
2018-Jun-25 06:00N 56°44' W 153°53'0 0.3 1016.2
2018-Jun-25 05:00N 56°44' W 153°52'0 0.0 1016.1
2018-Jun-25 04:00N 56°44' W 153°52'1 0.7 1015.9
2018-Jun-25 03:00N 56°44' W 153°53'1 0.6 1016.2
2018-Jun-25 02:00N 56°44' W 153°53'0 0.0 1016.1
2018-Jun-25 01:00N 56°44' W 153°53'0 0.0 1016.4
2018-Jun-25 00:00N 56°44' W 153°53'0 0.0 1016.7
2018-Jun-24 23:00N 56°44' W 153°53'0 0.0 1017.0
2018-Jun-24 22:00N 56°44' W 153°53'0 0.3 1017.6
2018-Jun-24 21:00N 56°44' W 153°53'1 0.3 1017.5
2018-Jun-24 19:00N 56°44' W 153°52'0 0.3 1017.2
2018-Jun-24 18:00N 56°44' W 153°53'0 0.0 1017.4
2018-Jun-24 17:00N 56°44' W 153°53'0 0.0 1017.5
2018-Jun-24 16:00N 56°44' W 153°53'0 0.3 1017.7
2018-Jun-24 15:00N 56°44' W 153°52'0 0.3 1018.0
2018-Jun-24 14:00N 56°44' W 153°53'0 0.0 1018.2
2018-Jun-24 13:00N 56°44' W 153°53'1 0.7 1018.4
2018-Jun-24 12:00N 56°44' W 153°53'1 0.1 1018.5
2018-Jun-24 06:00N 56°44' W 153°52'0 0.0 1019.2
2018-Jun-24 05:00N 56°44' W 153°52'0 0.0 1019.2
2018-Jun-24 04:00N 56°44' W 153°52'0 0.3 1019.3
2018-Jun-24 03:00N 56°44' W 153°53'0 0.0 1019.3
2018-Jun-24 02:00N 56°44' W 153°53'0 0.0 1019.6
2018-Jun-24 01:00N 56°44' W 153°53'0 0.0 1019.6
2018-Jun-24 00:00N 56°44' W 153°53'0 0.0 1019.8
2018-Jun-23 23:00N 56°44' W 153°53'0 0.0 1019.8
2018-Jun-23 22:00N 56°44' W 153°53'0 0.0 1019.6
2018-Jun-23 20:00N 56°44' W 153°53'0 0.0 1019.7
2018-Jun-23 19:00N 56°44' W 153°53'0 0.0 1019.5
2018-Jun-23 18:00N 56°44' W 153°53'0 0.0 1019.6
2018-Jun-23 17:00N 56°44' W 153°53'0 0.3 1019.7
2018-Jun-23 16:00N 56°44' W 153°52'0 0.0 1019.6
2018-Jun-23 14:00N 56°44' W 153°52'0 0.3 1019.5
2018-Jun-23 13:00N 56°44' W 153°53'0 0.0 1019.7
2018-Jun-23 12:00N 56°44' W 153°53'0 0.0 1019.7
2018-Jun-23 07:00N 56°44' W 153°53'0 0.3 1020.0
2018-Jun-23 06:00N 56°44' W 153°52'0 0.3 1020.0
2018-Jun-23 05:00N 56°44' W 153°53'0 0.0 1020.0
2018-Jun-23 04:00N 56°44' W 153°53'0 0.0 1019.8
2018-Jun-23 03:00N 56°44' W 153°53'0 0.0 1019.8
2018-Jun-23 02:00N 56°44' W 153°53'0 0.0 1020.0
2018-Jun-23 00:00N 56°44' W 153°53'0 0.0 1020.1
2018-Jun-22 23:00N 56°44' W 153°53'0 0.1 1020.0
2018-Jun-22 20:00N 56°44' W 153°52'0 0.3 1019.4
2018-Jun-22 19:00N 56°44' W 153°53'0 0.0 1019.0
2018-Jun-22 18:00N 56°44' W 153°53'0 0.0 1018.9
2018-Jun-22 17:00N 56°44' W 153°53'0 0.0 1018.5
2018-Jun-22 16:00N 56°44' W 153°53'0 0.0 1018.2
2018-Jun-22 15:00N 56°44' W 153°53'0 0.3 1017.8
2018-Jun-22 14:00N 56°44' W 153°52'0 0.3 1017.4
2018-Jun-22 13:00N 56°44' W 153°52'0 0.0 1017.2
2018-Jun-22 12:00N 56°44' W 153°52'0 0.1 1016.9
2018-Jun-22 06:00N 56°44' W 153°52'0 0.0 1014.3
2018-Jun-22 05:00N 56°44' W 153°52'0 0.0 1013.6
2018-Jun-22 04:00N 56°44' W 153°52'0 0.3 1013.1
2018-Jun-22 03:00N 56°44' W 153°53'0 0.0 1012.9
2018-Jun-22 02:00N 56°44' W 153°53'0 0.0 1012.4
2018-Jun-22 01:00N 56°44' W 153°53'0 0.0 1011.9
2018-Jun-22 00:00N 56°44' W 153°53'0 0.0 1011.4
2018-Jun-21 23:00N 56°44' W 153°53'0 0.0 1011.0
2018-Jun-21 22:00N 56°44' W 153°53'0 0.0 1010.6
2018-Jun-21 19:00N 56°44' W 153°53'0 0.0 1009.4
2018-Jun-21 18:00N 56°44' W 153°53'0 0.0 1009.0
2018-Jun-21 17:00N 56°44' W 153°53'0 0.0 1008.6
2018-Jun-21 16:00N 56°44' W 153°53'0 0.3 1008.3
2018-Jun-21 15:00N 56°44' W 153°52'0 0.0 1008.0
2018-Jun-21 14:00N 56°44' W 153°52'0 0.3 1007.7
2018-Jun-21 13:00N 56°44' W 153°53'1 1.2 1007.6
2018-Jun-21 12:00N 56°44' W 153°55'1 0.2 1007.5
2018-Jun-21 06:00N 56°44' W 153°53'0 0.0 1006.9
2018-Jun-21 05:00N 56°44' W 153°53'0 0.0 1006.8
2018-Jun-21 04:00N 56°44' W 153°53'0 0.0 1007.1
2018-Jun-21 03:00N 56°44' W 153°53'0 0.0 1007.4
2018-Jun-21 02:00N 56°44' W 153°53'0 0.0 1008.0
2018-Jun-21 01:00N 56°44' W 153°53'0 0.0 1008.4
2018-Jun-21 00:00N 56°44' W 153°53'0 0.0 1008.9
2018-Jun-20 23:00N 56°44' W 153°53'0 0.0 1009.2
2018-Jun-20 22:00N 56°44' W 153°53'0 0.0 1009.3
2018-Jun-20 21:00N 56°44' W 153°53'0 0.0 1009.9
2018-Jun-20 19:00N 56°44' W 153°53'0 0.0 1010.5
2018-Jun-20 18:00N 56°44' W 153°53'0 0.0 1010.9
2018-Jun-20 17:00N 56°44' W 153°53'0 0.0 1011.1
2018-Jun-20 15:00N 56°44' W 153°53'0 0.0 1011.4
2018-Jun-20 14:00N 56°44' W 153°53'0 0.0 1011.7
2018-Jun-20 13:00N 56°44' W 153°53'0 0.0 1012.0
2018-Jun-20 12:00N 56°44' W 153°53'0 0.0 1012.5
2018-Jun-20 06:00N 56°44' W 153°53'0 0.0 1013.8
2018-Jun-20 05:00N 56°44' W 153°53'0 0.0 1013.9
2018-Jun-20 04:00N 56°44' W 153°53'0 0.0 1014.0
2018-Jun-20 03:00N 56°44' W 153°53'0 0.0 1014.2
2018-Jun-20 02:00N 56°44' W 153°53'0 0.0 1014.4
2018-Jun-20 01:00N 56°44' W 153°53'0 0.0 1014.5
2018-Jun-19 23:00N 56°44' W 153°53'0 0.3 1015.2
2018-Jun-19 22:00N 56°44' W 153°53'0 0.2 1015.3
2018-Jun-19 20:00N 56°44' W 153°53'0 0.0 1015.1
2018-Jun-19 19:00N 56°44' W 153°53'0 0.0 1015.0
2018-Jun-19 18:00N 56°44' W 153°53'0 0.0 1014.9
2018-Jun-19 17:00N 56°44' W 153°53'0 0.0 1014.6
2018-Jun-19 16:00N 56°44' W 153°53'0 0.0 1014.4
2018-Jun-19 15:00N 56°44' W 153°53'0 0.0 1014.3
2018-Jun-19 14:00N 56°44' W 153°53'1 0.7 1013.9
2018-Jun-19 13:00N 56°44' W 153°53'0 0.0 1013.9
2018-Jun-19 12:00N 56°44' W 153°53'1 0.1 1013.7
2018-Jun-19 06:00N 56°44' W 153°52'0 0.0 1011.0
2018-Jun-19 05:00N 56°44' W 153°52'0 0.3 1010.3
2018-Jun-19 04:00N 56°44' W 153°53'0 0.0 1009.7
2018-Jun-19 03:00N 56°44' W 153°53'0 0.3 1009.2
2018-Jun-19 02:00N 56°44' W 153°52'0 0.3 1008.8
2018-Jun-19 01:00N 56°44' W 153°53'0 0.0 1008.4
2018-Jun-19 00:00N 56°44' W 153°53'0 0.0 1008.0
2018-Jun-18 23:00N 56°44' W 153°53'0 0.0 1007.2
2018-Jun-18 20:00N 56°44' W 153°53'0 0.0 1003.5
2018-Jun-18 19:00N 56°44' W 153°53'0 0.0 1001.9
2018-Jun-18 18:00N 56°44' W 153°53'0 0.0 1000.0
2018-Jun-18 17:00N 56°44' W 153°53'0 0.0 998.4
2018-Jun-18 16:00N 56°44' W 153°53'0 0.3 996.6
2018-Jun-18 15:00N 56°44' W 153°52'0 0.3 995.0
2018-Jun-18 14:00N 56°44' W 153°53'0 0.0 993.7
2018-Jun-18 13:00N 56°44' W 153°53'0 0.3 992.7
2018-Jun-18 12:00N 56°44' W 153°52'0 0.0 992.2
2018-Jun-18 06:00N 56°44' W 153°52'0 0.3 996.1
2018-Jun-18 05:00N 56°44' W 153°53'0 0.0 997.3
2018-Jun-18 04:00N 56°44' W 153°53'0 0.3 998.8
2018-Jun-18 03:00N 56°44' W 153°52'0 0.3 1000.5
2018-Jun-18 02:00N 56°44' W 153°53'0 0.0 1002.5
2018-Jun-18 01:00N 56°44' W 153°53'0 0.0 1003.6
2018-Jun-18 00:00N 56°44' W 153°53'0 0.2 1005.7
2018-Jun-17 22:00N 56°44' W 153°52'0 0.2 1008.2
2018-Jun-17 20:00N 56°44' W 153°53'0 0.0 1009.2
2018-Jun-17 19:00N 56°44' W 153°53'0 0.0 1009.6
2018-Jun-17 18:00N 56°44' W 153°53'0 0.0 1009.5
2018-Jun-17 17:00N 56°44' W 153°53'0 0.0 1009.1
2018-Jun-17 16:00N 56°44' W 153°53'0 0.3 1009.4
2018-Jun-17 15:00N 56°44' W 153°52'0 0.3 1009.3
2018-Jun-17 14:00N 56°44' W 153°53'0 0.0 1009.1
2018-Jun-17 13:00N 56°44' W 153°53'0 0.0 1009.1
2018-Jun-17 12:00N 56°44' W 153°53'0 0.1 1009.1
2018-Jun-17 06:00N 56°44' W 153°52'0 0.3 1006.9
2018-Jun-17 05:00N 56°44' W 153°53'0 0.3 1006.7
2018-Jun-17 04:00N 56°44' W 153°52'0 0.3 1006.2
2018-Jun-17 03:00N 56°44' W 153°53'0 0.0 1006.2
2018-Jun-17 02:00N 56°44' W 153°53'0 0.3 1005.9
2018-Jun-17 01:00N 56°44' W 153°52'0 0.3 1005.5
2018-Jun-17 00:00N 56°44' W 153°53'0 0.0 1005.3
2018-Jun-16 22:00N 56°44' W 153°53'0 0.0 1004.6
2018-Jun-16 21:00N 56°44' W 153°53'0 0.0 1004.2
2018-Jun-16 19:00N 56°44' W 153°53'0 0.3 1004.1
2018-Jun-16 18:00N 56°44' W 153°52'0 0.0 1003.8
2018-Jun-16 17:00N 56°44' W 153°52'0 0.3 1003.7
2018-Jun-16 16:00N 56°44' W 153°53'0 0.0 1003.8
2018-Jun-16 15:00N 56°44' W 153°53'0 0.3 1003.8
2018-Jun-16 14:00N 56°44' W 153°52'1 0.7 1003.9
2018-Jun-16 13:00N 56°44' W 153°53'1 0.7 1004.2
2018-Jun-16 12:00N 56°44' W 153°52'0 0.0 1004.4
2018-Jun-16 11:00N 56°44' W 153°52'0 0.0 1004.5
2018-Jun-16 06:00N 56°44' W 153°52'0 0.0 1004.8
2018-Jun-16 05:00N 56°44' W 153°52'0 0.0 1004.5
2018-Jun-16 04:00N 56°44' W 153°52'1 0.7 1004.3
2018-Jun-16 03:00N 56°44' W 153°53'0 0.3 1004.4
2018-Jun-16 02:00N 56°44' W 153°53'0 0.0 1004.1
2018-Jun-16 01:00N 56°44' W 153°53'0 0.0 1004.6
2018-Jun-16 00:00N 56°44' W 153°53'0 0.0 1005.1
2018-Jun-15 23:00N 56°44' W 153°53'0 0.0 1004.9
2018-Jun-15 22:00N 56°44' W 153°53'0 0.0 1005.4
2018-Jun-15 21:00N 56°44' W 153°53'0 0.0 1005.9
2018-Jun-15 20:00N 56°44' W 153°53'1 0.9 1006.1
2018-Jun-15 19:00N 56°44' W 153°52'1 0.9 1006.8
2018-Jun-15 18:00N 56°44' W 153°53'0 0.0 1007.0
2018-Jun-15 17:00N 56°44' W 153°53'0 0.0 1007.4
2018-Jun-15 16:00N 56°44' W 153°53'0 0.0 1008.0
2018-Jun-15 15:00N 56°44' W 153°53'0 0.0 1008.9
2018-Jun-15 14:00N 56°44' W 153°53'0 0.0 1009.3
2018-Jun-15 13:00N 56°44' W 153°53'0 0.3 1010.6
2018-Jun-15 12:00N 56°44' W 153°52'   1011.4
Track history (hours):
 
Tides and Currents Weather Stations Pressure Air Temp Water Temp Dewpoint Dewpoint Depression Visibility Wind Speed Wind Dir Waves Ship Positions

Drifting buoy 21956

Last reported at 2018-Jun-25 12:00 UTC. Time now 2018-Jun-25 14:13 UTC.
Position N 56°44' W 153°53'.

Barometer 1015.1 mb

Date/timePositionNaut miles runAvg speedWind from/ knotsBaromVisibWave heightAir tempDewpointWater temp
2018-Jun-25 12:00N 56°44' W 153°53'0 0.1 1015.1
2018-Jun-25 06:00N 56°44' W 153°53'0 0.3 1016.2
2018-Jun-25 05:00N 56°44' W 153°52'0 0.0 1016.1
2018-Jun-25 04:00N 56°44' W 153°52'1 0.7 1015.9
2018-Jun-25 03:00N 56°44' W 153°53'1 0.6 1016.2
2018-Jun-25 02:00N 56°44' W 153°53'0 0.0 1016.1
2018-Jun-25 01:00N 56°44' W 153°53'0 0.0 1016.4
2018-Jun-25 00:00N 56°44' W 153°53'0 0.0 1016.7
2018-Jun-24 23:00N 56°44' W 153°53'0 0.0 1017.0
2018-Jun-24 22:00N 56°44' W 153°53'0 0.3 1017.6
2018-Jun-24 21:00N 56°44' W 153°53'1 0.3 1017.5
2018-Jun-24 19:00N 56°44' W 153°52'0 0.3 1017.2
2018-Jun-24 18:00N 56°44' W 153°53'0 0.0 1017.4
2018-Jun-24 17:00N 56°44' W 153°53'0 0.0 1017.5
2018-Jun-24 16:00N 56°44' W 153°53'0 0.3 1017.7
2018-Jun-24 15:00N 56°44' W 153°52'0 0.3 1018.0
2018-Jun-24 14:00N 56°44' W 153°53'0 0.0 1018.2
2018-Jun-24 13:00N 56°44' W 153°53'1 0.7 1018.4
2018-Jun-24 12:00N 56°44' W 153°53'1 0.1 1018.5
2018-Jun-24 06:00N 56°44' W 153°52'0 0.0 1019.2
2018-Jun-24 05:00N 56°44' W 153°52'0 0.0 1019.2
2018-Jun-24 04:00N 56°44' W 153°52'0 0.3 1019.3
2018-Jun-24 03:00N 56°44' W 153°53'0 0.0 1019.3
2018-Jun-24 02:00N 56°44' W 153°53'0 0.0 1019.6
2018-Jun-24 01:00N 56°44' W 153°53'0 0.0 1019.6
2018-Jun-24 00:00N 56°44' W 153°53'0 0.0 1019.8
2018-Jun-23 23:00N 56°44' W 153°53'0 0.0 1019.8
2018-Jun-23 22:00N 56°44' W 153°53'0 0.0 1019.6
2018-Jun-23 20:00N 56°44' W 153°53'0 0.0 1019.7
2018-Jun-23 19:00N 56°44' W 153°53'0 0.0 1019.5
2018-Jun-23 18:00N 56°44' W 153°53'0 0.0 1019.6
2018-Jun-23 17:00N 56°44' W 153°53'0 0.3 1019.7
2018-Jun-23 16:00N 56°44' W 153°52'0 0.0 1019.6
2018-Jun-23 14:00N 56°44' W 153°52'0 0.3 1019.5
2018-Jun-23 13:00N 56°44' W 153°53'0 0.0 1019.7
2018-Jun-23 12:00N 56°44' W 153°53'0 0.0 1019.7
2018-Jun-23 07:00N 56°44' W 153°53'0 0.3 1020.0
2018-Jun-23 06:00N 56°44' W 153°52'0 0.3 1020.0
2018-Jun-23 05:00N 56°44' W 153°53'0 0.0 1020.0
2018-Jun-23 04:00N 56°44' W 153°53'0 0.0 1019.8
2018-Jun-23 03:00N 56°44' W 153°53'0 0.0 1019.8
2018-Jun-23 02:00N 56°44' W 153°53'0 0.0 1020.0
2018-Jun-23 00:00N 56°44' W 153°53'0 0.0 1020.1
2018-Jun-22 23:00N 56°44' W 153°53'0 0.1 1020.0
2018-Jun-22 20:00N 56°44' W 153°52'0 0.3 1019.4
2018-Jun-22 19:00N 56°44' W 153°53'0 0.0 1019.0
2018-Jun-22 18:00N 56°44' W 153°53'0 0.0 1018.9
2018-Jun-22 17:00N 56°44' W 153°53'0 0.0 1018.5
2018-Jun-22 16:00N 56°44' W 153°53'0 0.0 1018.2
2018-Jun-22 15:00N 56°44' W 153°53'0 0.3 1017.8
2018-Jun-22 14:00N 56°44' W 153°52'0 0.3 1017.4
2018-Jun-22 13:00N 56°44' W 153°52'0 0.0 1017.2
2018-Jun-22 12:00N 56°44' W 153°52'0 0.1 1016.9
2018-Jun-22 06:00N 56°44' W 153°52'0 0.0 1014.3
2018-Jun-22 05:00N 56°44' W 153°52'0 0.0 1013.6
2018-Jun-22 04:00N 56°44' W 153°52'0 0.3 1013.1
2018-Jun-22 03:00N 56°44' W 153°53'0 0.0 1012.9
2018-Jun-22 02:00N 56°44' W 153°53'0 0.0 1012.4
2018-Jun-22 01:00N 56°44' W 153°53'0 0.0 1011.9
2018-Jun-22 00:00N 56°44' W 153°53'0 0.0 1011.4
2018-Jun-21 23:00N 56°44' W 153°53'0 0.0 1011.0
2018-Jun-21 22:00N 56°44' W 153°53'0 0.0 1010.6
2018-Jun-21 19:00N 56°44' W 153°53'0 0.0 1009.4
2018-Jun-21 18:00N 56°44' W 153°53'0 0.0 1009.0
2018-Jun-21 17:00N 56°44' W 153°53'0 0.0 1008.6
2018-Jun-21 16:00N 56°44' W 153°53'0 0.3 1008.3
2018-Jun-21 15:00N 56°44' W 153°52'0 0.0 1008.0
2018-Jun-21 14:00N 56°44' W 153°52'0 0.3 1007.7
2018-Jun-21 13:00N 56°44' W 153°53'1 1.2 1007.6
2018-Jun-21 12:00N 56°44' W 153°55'1 0.2 1007.5
2018-Jun-21 06:00N 56°44' W 153°53'0 0.0 1006.9
2018-Jun-21 05:00N 56°44' W 153°53'0 0.0 1006.8
2018-Jun-21 04:00N 56°44' W 153°53'0 0.0 1007.1
2018-Jun-21 03:00N 56°44' W 153°53'0 0.0 1007.4
2018-Jun-21 02:00N 56°44' W 153°53'0 0.0 1008.0
2018-Jun-21 01:00N 56°44' W 153°53'0 0.0 1008.4
2018-Jun-21 00:00N 56°44' W 153°53'0 0.0 1008.9
2018-Jun-20 23:00N 56°44' W 153°53'0 0.0 1009.2
2018-Jun-20 22:00N 56°44' W 153°53'0 0.0 1009.3
2018-Jun-20 21:00N 56°44' W 153°53'0 0.0 1009.9
2018-Jun-20 19:00N 56°44' W 153°53'0 0.0 1010.5
2018-Jun-20 18:00N 56°44' W 153°53'0 0.0 1010.9
2018-Jun-20 17:00N 56°44' W 153°53'0 0.0 1011.1
2018-Jun-20 15:00N 56°44' W 153°53'0 0.0 1011.4
2018-Jun-20 14:00N 56°44' W 153°53'0 0.0 1011.7
2018-Jun-20 13:00N 56°44' W 153°53'0 0.0 1012.0
2018-Jun-20 12:00N 56°44' W 153°53'0 0.0 1012.5
2018-Jun-20 06:00N 56°44' W 153°53'0 0.0 1013.8
2018-Jun-20 05:00N 56°44' W 153°53'0 0.0 1013.9
2018-Jun-20 04:00N 56°44' W 153°53'0 0.0 1014.0
2018-Jun-20 03:00N 56°44' W 153°53'0 0.0 1014.2
2018-Jun-20 02:00N 56°44' W 153°53'0 0.0 1014.4
2018-Jun-20 01:00N 56°44' W 153°53'0 0.0 1014.5
2018-Jun-19 23:00N 56°44' W 153°53'0 0.3 1015.2
2018-Jun-19 22:00N 56°44' W 153°53'0 0.2 1015.3
2018-Jun-19 20:00N 56°44' W 153°53'0 0.0 1015.1
2018-Jun-19 19:00N 56°44' W 153°53'0 0.0 1015.0
2018-Jun-19 18:00N 56°44' W 153°53'0 0.0 1014.9
2018-Jun-19 17:00N 56°44' W 153°53'0 0.0 1014.6
2018-Jun-19 16:00N 56°44' W 153°53'0 0.0 1014.4
2018-Jun-19 15:00N 56°44' W 153°53'0 0.0 1014.3
2018-Jun-19 14:00N 56°44' W 153°53'1 0.7 1013.9
2018-Jun-19 13:00N 56°44' W 153°53'0 0.0 1013.9
2018-Jun-19 12:00N 56°44' W 153°53'1 0.1 1013.7
2018-Jun-19 06:00N 56°44' W 153°52'0 0.0 1011.0
2018-Jun-19 05:00N 56°44' W 153°52'0 0.3 1010.3
2018-Jun-19 04:00N 56°44' W 153°53'0 0.0 1009.7
2018-Jun-19 03:00N 56°44' W 153°53'0 0.3 1009.2
2018-Jun-19 02:00N 56°44' W 153°52'0 0.3 1008.8
2018-Jun-19 01:00N 56°44' W 153°53'0 0.0 1008.4
2018-Jun-19 00:00N 56°44' W 153°53'0 0.0 1008.0
2018-Jun-18 23:00N 56°44' W 153°53'0 0.0 1007.2
2018-Jun-18 20:00N 56°44' W 153°53'0 0.0 1003.5
2018-Jun-18 19:00N 56°44' W 153°53'0 0.0 1001.9
2018-Jun-18 18:00N 56°44' W 153°53'0 0.0 1000.0
2018-Jun-18 17:00N 56°44' W 153°53'0 0.0 998.4
2018-Jun-18 16:00N 56°44' W 153°53'0 0.3 996.6
2018-Jun-18 15:00N 56°44' W 153°52'0 0.3 995.0
2018-Jun-18 14:00N 56°44' W 153°53'0 0.0 993.7
2018-Jun-18 13:00N 56°44' W 153°53'0 0.3 992.7
2018-Jun-18 12:00N 56°44' W 153°52'0 0.0 992.2
2018-Jun-18 06:00N 56°44' W 153°52'0 0.3 996.1
2018-Jun-18 05:00N 56°44' W 153°53'0 0.0 997.3
2018-Jun-18 04:00N 56°44' W 153°53'0 0.3 998.8
2018-Jun-18 03:00N 56°44' W 153°52'0 0.3 1000.5
2018-Jun-18 02:00N 56°44' W 153°53'0 0.0 1002.5
2018-Jun-18 01:00N 56°44' W 153°53'0 0.0 1003.6
2018-Jun-18 00:00N 56°44' W 153°53'0 0.2 1005.7
2018-Jun-17 22:00N 56°44' W 153°52'0 0.2 1008.2
2018-Jun-17 20:00N 56°44' W 153°53'0 0.0 1009.2
2018-Jun-17 19:00N 56°44' W 153°53'0 0.0 1009.6
2018-Jun-17 18:00N 56°44' W 153°53'0 0.0 1009.5
2018-Jun-17 17:00N 56°44' W 153°53'0 0.0 1009.1
2018-Jun-17 16:00N 56°44' W 153°53'0 0.3 1009.4
2018-Jun-17 15:00N 56°44' W 153°52'0 0.3 1009.3
2018-Jun-17 14:00N 56°44' W 153°53'0 0.0 1009.1
2018-Jun-17 13:00N 56°44' W 153°53'0 0.0 1009.1
2018-Jun-17 12:00N 56°44' W 153°53'0 0.1 1009.1
2018-Jun-17 06:00N 56°44' W 153°52'0 0.3 1006.9
2018-Jun-17 05:00N 56°44' W 153°53'0 0.3 1006.7
2018-Jun-17 04:00N 56°44' W 153°52'0 0.3 1006.2
2018-Jun-17 03:00N 56°44' W 153°53'0 0.0 1006.2
2018-Jun-17 02:00N 56°44' W 153°53'0 0.3 1005.9
2018-Jun-17 01:00N 56°44' W 153°52'0 0.3 1005.5
2018-Jun-17 00:00N 56°44' W 153°53'0 0.0 1005.3
2018-Jun-16 22:00N 56°44' W 153°53'0 0.0 1004.6
2018-Jun-16 21:00N 56°44' W 153°53'0 0.0 1004.2
2018-Jun-16 19:00N 56°44' W 153°53'0 0.3 1004.1
2018-Jun-16 18:00N 56°44' W 153°52'0 0.0 1003.8
2018-Jun-16 17:00N 56°44' W 153°52'0 0.3 1003.7
2018-Jun-16 16:00N 56°44' W 153°53'0 0.0 1003.8
2018-Jun-16 15:00N 56°44' W 153°53'0 0.3 1003.8
2018-Jun-16 14:00N 56°44' W 153°52'1 0.7 1003.9
2018-Jun-16 13:00N 56°44' W 153°53'1 0.7 1004.2
2018-Jun-16 12:00N 56°44' W 153°52'0 0.0 1004.4
2018-Jun-16 11:00N 56°44' W 153°52'0 0.0 1004.5
2018-Jun-16 06:00N 56°44' W 153°52'0 0.0 1004.8
2018-Jun-16 05:00N 56°44' W 153°52'0 0.0 1004.5
2018-Jun-16 04:00N 56°44' W 153°52'1 0.7 1004.3
2018-Jun-16 03:00N 56°44' W 153°53'0 0.3 1004.4
2018-Jun-16 02:00N 56°44' W 153°53'0 0.0 1004.1
2018-Jun-16 01:00N 56°44' W 153°53'0 0.0 1004.6
2018-Jun-16 00:00N 56°44' W 153°53'0 0.0 1005.1
2018-Jun-15 23:00N 56°44' W 153°53'0 0.0 1004.9
2018-Jun-15 22:00N 56°44' W 153°53'0 0.0 1005.4
2018-Jun-15 21:00N 56°44' W 153°53'0 0.0 1005.9
2018-Jun-15 20:00N 56°44' W 153°53'1 0.9 1006.1
2018-Jun-15 19:00N 56°44' W 153°52'1 0.9 1006.8
2018-Jun-15 18:00N 56°44' W 153°53'0 0.0 1007.0
2018-Jun-15 17:00N 56°44' W 153°53'0 0.0 1007.4
2018-Jun-15 16:00N 56°44' W 153°53'0 0.0 1008.0
2018-Jun-15 15:00N 56°44' W 153°53'0 0.0 1008.9
2018-Jun-15 14:00N 56°44' W 153°53'0 0.0 1009.3
2018-Jun-15 13:00N 56°44' W 153°53'0 0.3 1010.6
2018-Jun-15 12:00N 56°44' W 153°52'   1011.4

Dump ship's entire track history